Highlands Ranch, CO (80163)

12:46 PM MDT on August 22, 2014 (GMT -0600)
Wheeler Ct | Change Station
CLOSE
Current Station
Personal Weather Station
Location: Highlands Ranch, CO
Elevation: 5761 ft
Nearby Weather Stations

Elev 5761 ft 39.55 °N, 104.97 °W | Updated 3 seconds ago

Overcast
Overcast
69.1 °F
Feels Like 69.1 °F
N
0.0
Wind Variable Wind from East
Gusts 2.2 mph

Today
High -- | Low -- °F
--% Chance of Precip.
Yesterday
High -- | Low -- °F
Precip. -- in
6:18 AM 7:45 PM
Waning Crescent, 7% visible
Pressure 30.01 in
Visibility 10.0 miles
Clouds Few 5000 ft
Mostly Cloudy 10000 ft
Overcast 14000 ft
Dew Point 57 °F
Humidity 66%
Rainfall 0.02 in
Snow Depth Not available.
UV 3 out of 12
Pollen 9.60 out of 12
Ozone Good
PM2.5 Good
Flu Activity Not available.
METAR KAPA 221753Z 00000KT 10SM -RA FEW050 BKN100 OVC140 19/12 A3019 RMK AO2 RAB42 SLP160 P0000 60000 T01940122 10194 20156 58005

More Conditions Fewer Conditions

Pressure 30.01 in
Visibility 10.0 miles
Clouds Few 5000 ft
Mostly Cloudy 10000 ft
Overcast 14000 ft
Dew Point 57 °F
Humidity 66%
Rainfall 0.02 in
Snow Depth Not available.
UV 3 out of 12
Pollen 9.60 out of 12
Ozone Good
PM2.5 Good
Flu Activity Not available.
METAR KAPA 221753Z 00000KT 10SM -RA FEW050 BKN100 OVC140 19/12 A3019 RMK AO2 RAB42 SLP160 P0000 60000 T01940122 10194 20156 58005

More Conditions Fewer Conditions

Nowcast | as of 12:42 PM MDT on August 22, 2014

Rain showers will continue to move over portions of the Front Range and northern foothills through the late afternoon. There will be periods of heavier rainfall that could reach up to half an inch in 30 minutes this afternoon but rainfall amounts will mainly be around a tenth of an inch.

×

10-Day Weather Forecast

Almanac

Astronomy

Aug. 22, 2014 Rise Set
Actual Time 6:18 AM MDT 7:45 PM MDT
Civil Twilight 5:50 AM MDT 8:14 PM MDT
Nautical Twilight 5:16 AM MDT 8:47 PM MDT
Astronomical Twilight 4:40 AM MDT 9:23 PM MDT
Moon 3:44 AM MDT 5:55 PM MDT
Length of Visible Light 14h 23m
Length of Day
13h 26m
Tomorrow will be 2m 24s shorter.
Waning Crescent, 7% of the Moon is Illuminated
Today
Waning Crescent
Aug 25
New
Sep 2
First Quarter
Sep 8
Full
Sep 15
Last Quarter

Today's Extremes

State Highs State Lows

Community

WunderPhotos

Upload Photos

1,746,216 photos uploaded!

Nearby

Air Quality

  Air Quality AQ Index Pollutant
Yesterday Moderate
OZONE
Yesterday Good
PM10
Current Good
OZONE
Current Good
PM2.5
Friday Good
OZONE
Friday Good
PM2.5

Snow Depth

Station Depth Elevation
Echo Lake 0 in 10600 ft
Jackwhacker Gulch 0 in 10960 ft
Niwot 0 in 9910 ft
University Camp 0 in 10300 ft
Berthoud Summit 0 in 11300 ft

Earthquake Activity

City Distance Mag. Time & Date
No recent earthquake activity has been reported nearby.
Minimum magnitude displayed is 2.5.

Coastal Water Temperatures

Place Temperature
No Stations Reporting

Nearby Weather Stations